Greenwater, Washington
Current Conditions -  °F | °C
As of 10:53 AM on Friday 21 Nov 2014 (Local Time) from KRNT Reporting Station
Light Rain Light Rain  
Wind Chill: 51°   Ceiling: 5500
Heat Index: 51°   Visibility: 7mi
Dew Point: 46°   Wind: 3mph
Humidity: 83%   Direction: NA
Pressure: 29.66"   Gusts: NA
Location:  47.1782°N, 121.641°W
Report Text: KRNT 211853Z VRB03KT 7SM -RA SCT047 BKN055 OVC070 11/08 A2966 RMK AO2 RAB07 SLP049 P0001 T01060078
Loading
Personal Weather Stations






























Interactive Weather Map New forecast layout! Learn more

10-Day Weather Forecast

Advertisements
Track Severe Weather on mobile